METAR Data
IDs: Format: Raw Decoded Include TAF

Data at: 1713 UTC 03 Dec 2021

KOTH 031656Z 36006KT 8SM CLR 08/06 A3020 RMK AO2 SLP225 T00780061
KOTH 031556Z 03003KT 10SM CLR 06/06 A3019 RMK AO2 SLP221 T00610056
KOTH 031456Z 02007KT 10SM CLR 06/06 A3021 RMK AO2 SLP228 T00610056 56009
KOTH 031356Z AUTO 01011KT 10SM CLR 06/05 A3021 RMK AO2 SLP231 T00560050
KOTH 031256Z AUTO 01007KT 10SM CLR 06/05 A3022 RMK AO2 SLP233 T00610050
KOTH 031156Z AUTO 36007KT 10SM CLR 07/06 A3023 RMK AO2 SLP237 T00670056 10089 20061 56005
KOTH 031056Z AUTO 36007KT 10SM CLR 07/06 A3024 RMK AO2 SLP241 T00670056
KOTH 030956Z AUTO 01006KT 10SM CLR 07/06 A3024 RMK AO2 SLP238 T00670061
KOTH 030856Z AUTO 36009KT 10SM CLR 08/07 A3025 RMK AO2 SLP242 T00780067 58002
KOTH 030756Z AUTO 01010KT 10SM CLR 08/07 A3026 RMK AO2 SLP246 T00830072 401330083
KOTH 030656Z AUTO 36009KT 10SM CLR 08/07 A3026 RMK AO2 SLP247 T00830072
KOTH 030556Z AUTO 01007KT 10SM CLR 09/08 A3026 RMK AO2 SLP245 T00890078 10111 20089 58006
KOTH 030456Z 01008KT 10SM CLR 09/08 A3027 RMK AO2 SLP249 T00940078
KOTH 030434Z 01008KT 10SM SCT027 09/08 A3027 RMK AO2
KOTH 030356Z 01008KT 10SM OVC027 11/08 A3028 RMK AO2 SLP253 T01060083
KOTH 030256Z 36008KT 10SM OVC021 11/08 A3027 RMK AO2 SLP251 T01060083 55002
KOTH 030156Z 02008KT 10SM OVC019 11/08 A3027 RMK AO2 SLP250 T01060083
KOTH 030056Z 01008KT 10SM OVC019 11/08 A3028 RMK AO2 SLP252 T01110078
KOTH 022356Z 01011KT 9SM OVC019 11/08 A3028 RMK AO2 SLP253 T01110078 10133 20111 56006
KOTH 022256Z 36012KT 9SM OVC021 12/09 A3029 RMK AO2 SLP255 T01170089
KOTH 022156Z 36014KT 9SM OVC018 12/09 A3029 RMK AO2 SLP256 T01170089
KOTH 022056Z 36013KT 8SM OVC018 12/09 A3030 RMK AO2 SLP259 T01220094 58009
KOTH 022013Z 03005KT 10SM BKN018 13/10 A3030 RMK AO2
KOTH 021956Z 04009KT 10SM FEW016 13/09 A3031 RMK AO2 SLP263 T01280094
KOTH 021936Z 03007KT 10SM FEW014 12/10 A3031 RMK AO2
KOTH 021904Z 02008KT 10SM BKN014 BKN019 12/09 A3032 RMK AO2
KOTH 021856Z 03010KT 10SM SCT017 12/10 A3032 RMK AO2 SLP267 T01220100
KOTH 021853Z 03008KT 10SM SCT015 12/10 A3032 RMK AO2
KOTH 021816Z 03008KT 8SM SCT007 OVC015 12/09 A3033 RMK AO2
KOTH 021756Z COR 02007KT 10SM SCT007 OVC015 12/10 A3033 RMK AO2 SLP271 60000 T01220100 10122 20100 51008
KOTH 021729Z 02006KT 10SM FEW019 11/10 A3033 RMK AO2
KOTH 021703Z 02005KT 10SM OVC015 11/10 A3033 RMK AO2
KOTH 021656Z 01008KT 6SM BR BKN007 OVC015 11/10 A3033 RMK AO2 RAE37 SLP269 P0000 T01110100
KOTH 021652Z 01008KT 6SM BR BKN007 OVC015 11/10 A3032 RMK AO2 RAE37 P0000
KOTH 021644Z 36011KT 6SM BR SCT007 OVC015 11/10 A3032 RMK AO2 RAE37 P0000
KOTH 021556Z 36004KT 3/4SM -RA BR BKN007 OVC011 11/10 A3031 RMK AO2 RAB16 CIG 005V009 SLP263 P0000 T01060100 RVRNO
KOTH 021537Z 34004KT 3/4SM -RA BR OVC009 11/10 A3031 RMK AO2 RAB16 P0000 RVRNO
KOTH 021525Z 35004KT 2SM -RA BR BKN009 OVC014 11/10 A3030 RMK AO2 RAB16 CIG 007V012 P0000
KOTH 021456Z 02008KT 10SM OVC012 11/10 A3029 RMK AO2 SLP257 60000 T01060100 53010
KOTH 021425Z AUTO 33003KT 10SM BKN014 11/10 A3028 RMK AO2
KOTH 021410Z AUTO 33004KT 10SM FEW007 SCT018 10/09 A3028 RMK AO2
KOTH 021356Z AUTO 00000KT 10SM FEW007 BKN018 BKN023 11/10 A3027 RMK AO2 RAB10E31 SLP250 P0000 T01060100
KOTH 021340Z AUTO 00000KT 9SM FEW005 SCT012 BKN019 11/10 A3028 RMK AO2 RAB10E31 P0000
KOTH 021256Z AUTO 36006KT 7SM SCT007 OVC014 11/11 A3027 RMK AO2 SLP251 T01110106
KOTH 021156Z AUTO 00000KT 10SM OVC009 11/11 A3026 RMK AO2 SLP248 60001 70001 T01060106 10111 20106 53002
KOTH 021056Z AUTO 00000KT 8SM OVC007 11/11 A3026 RMK AO2 RAE14 CIG 003V010 SLP246 P0001 T01060106
KOTH 021037Z AUTO 16003KT 3SM BR OVC005 11/11 A3026 RMK AO2 RAE14 CIG 003V008 P0000
KOTH 021029Z AUTO 00000KT 2 1/2SM BR OVC005 11/11 A3026 RMK AO2 RAE14 CIG 003V008 P0000
KOTH 021019Z AUTO 00000KT 3SM BR OVC005 11/11 A3026 RMK AO2 RAE14 CIG 003V007 P0000
KOTH 020956Z AUTO 02003KT 2 1/2SM -RA BR OVC005 11/11 A3026 RMK AO2 RAB08 SLP245 P0000 T01060106
KOTH 020856Z AUTO 02004KT 2 1/2SM BR OVC005 11/10 A3026 RMK AO2 RAB38E53 SLP245 P0000 60000 T01060100 50005
KOTH 020838Z AUTO 01004KT 2 1/2SM -RA BR OVC005 11/10 A3026 RMK AO2 RAB38 CIG 004V009 P0000
KOTH 020830Z AUTO 36005KT 3SM BR OVC007 11/10 A3026 RMK AO2 CIG 004V010
KOTH 020823Z AUTO 35005KT 3SM BR OVC005 11/10 A3026 RMK AO2 CIG 004V010
KOTH 020806Z AUTO 36003KT 3SM BR OVC007 11/10 A3026 RMK AO2 CIG 004V010
KOTH 020802Z AUTO 35004KT 2 1/2SM BR OVC005 11/10 A3026 RMK AO2 CIG 004V010
KOTH 020756Z AUTO 36005KT 3SM BR OVC007 11/10 A3026 RMK AO2 SLP246 T01060100 401670078
KOTH 020656Z AUTO 03004KT 10SM OVC007 11/10 A3025 RMK AO2 SLP243 T01060100
KOTH 020556Z AUTO 02007KT 10SM OVC007 11/10 A3024 RMK AO2 SLP240 60000 T01060100 10111 20106 51013